sensor_id;sensor_type;location;lat;lon;timestamp;P1;durP1;ratioP1;P2;durP2;ratioP2
11854;SDS011;5987;53.140;8.904;2023-04-01T00:02:12;13.80;;;8.17;;
11854;SDS011;5987;53.140;8.904;2023-04-01T00:05:16;17.70;;;8.20;;
11854;SDS011;5987;53.140;8.904;2023-04-01T00:08:20;13.23;;;8.60;;
11854;SDS011;5987;53.140;8.904;2023-04-01T00:11:25;13.23;;;8.27;;
11854;SDS011;5987;53.140;8.904;2023-04-01T00:14:29;11.57;;;8.23;;
11854;SDS011;5987;53.140;8.904;2023-04-01T00:17:33;14.57;;;8.70;;
11854;SDS011;5987;53.140;8.904;2023-04-01T00:20:37;17.47;;;9.50;;
11854;SDS011;5987;53.140;8.904;2023-04-01T00:23:41;12.80;;;8.83;;
11854;SDS011;5987;53.140;8.904;2023-04-01T00:26:46;11.87;;;8.07;;
11854;SDS011;5987;53.140;8.904;2023-04-01T00:29:50;13.93;;;7.93;;
11854;SDS011;5987;53.140;8.904;2023-04-01T00:32:54;13.50;;;7.87;;
11854;SDS011;5987;53.140;8.904;2023-04-01T00:36:04;12.57;;;8.07;;
11854;SDS011;5987;53.140;8.904;2023-04-01T00:39:11;12.03;;;7.83;;
11854;SDS011;5987;53.140;8.904;2023-04-01T00:42:16;12.07;;;8.00;;
11854;SDS011;5987;53.140;8.904;2023-04-01T00:45:28;12.97;;;8.70;;
11854;SDS011;5987;53.140;8.904;2023-04-01T00:48:38;12.93;;;8.10;;
11854;SDS011;5987;53.140;8.904;2023-04-01T00:51:46;12.90;;;7.63;;
11854;SDS011;5987;53.140;8.904;2023-04-01T00:54:55;12.23;;;8.60;;
11854;SDS011;5987;53.140;8.904;2023-04-01T00:58:05;16.23;;;7.97;;
11854;SDS011;5987;53.140;8.904;2023-04-01T01:01:15;13.53;;;8.80;;
11854;SDS011;5987;53.140;8.904;2023-04-01T01:04:21;13.27;;;8.57;;
11854;SDS011;5987;53.140;8.904;2023-04-01T01:07:27;14.03;;;8.20;;
11854;SDS011;5987;53.140;8.904;2023-04-01T01:10:46;12.23;;;8.53;;
11854;SDS011;5987;53.140;8.904;2023-04-01T01:13:55;15.30;;;8.53;;
11854;SDS011;5987;53.140;8.904;2023-04-01T01:17:10;14.37;;;8.63;;
11854;SDS011;5987;53.140;8.904;2023-04-01T01:20:29;13.10;;;9.40;;
11854;SDS011;5987;53.140;8.904;2023-04-01T01:24:13;14.23;;;9.77;;
11854;SDS011;5987;53.140;8.904;2023-04-01T01:27:39;15.13;;;9.77;;
11854;SDS011;5987;53.140;8.904;2023-04-01T01:30:57;16.40;;;9.93;;
11854;SDS011;5987;53.140;8.904;2023-04-01T01:34:13;11.00;;;8.43;;
11854;SDS011;5987;53.140;8.904;2023-04-01T01:37:27;11.70;;;8.27;;
11854;SDS011;5987;53.140;8.904;2023-04-01T01:40:34;11.70;;;9.27;;
11854;SDS011;5987;53.140;8.904;2023-04-01T01:43:43;10.23;;;7.27;;
11854;SDS011;5987;53.140;8.904;2023-04-01T01:46:51;12.60;;;9.00;;
11854;SDS011;5987;53.140;8.904;2023-04-01T01:49:55;12.70;;;7.80;;
11854;SDS011;5987;53.140;8.904;2023-04-01T01:53:02;11.67;;;8.27;;
11854;SDS011;5987;53.140;8.904;2023-04-01T01:56:09;11.70;;;8.23;;
11854;SDS011;5987;53.140;8.904;2023-04-01T01:59:15;10.10;;;8.03;;
11854;SDS011;5987;53.140;8.904;2023-04-01T02:02:25;15.30;;;8.10;;
11854;SDS011;5987;53.140;8.904;2023-04-01T02:05:32;13.37;;;8.17;;
11854;SDS011;5987;53.140;8.904;2023-04-01T02:08:40;10.93;;;8.17;;
11854;SDS011;5987;53.140;8.904;2023-04-01T02:11:48;12.63;;;7.63;;
11854;SDS011;5987;53.140;8.904;2023-04-01T02:14:57;11.87;;;8.30;;
11854;SDS011;5987;53.140;8.904;2023-04-01T02:18:08;15.60;;;8.47;;
11854;SDS011;5987;53.140;8.904;2023-04-01T02:21:14;12.27;;;8.13;;
11854;SDS011;5987;53.140;8.904;2023-04-01T02:24:22;11.10;;;7.83;;
11854;SDS011;5987;53.140;8.904;2023-04-01T02:27:29;12.90;;;8.47;;
11854;SDS011;5987;53.140;8.904;2023-04-01T02:30:34;12.20;;;8.33;;
11854;SDS011;5987;53.140;8.904;2023-04-01T02:33:42;13.93;;;8.40;;
11854;SDS011;5987;53.140;8.904;2023-04-01T02:36:47;10.87;;;7.80;;
11854;SDS011;5987;53.140;8.904;2023-04-01T02:39:53;13.93;;;8.90;;
11854;SDS011;5987;53.140;8.904;2023-04-01T02:43:02;11.60;;;8.43;;
11854;SDS011;5987;53.140;8.904;2023-04-01T02:46:05;13.63;;;8.90;;
11854;SDS011;5987;53.140;8.904;2023-04-01T02:49:09;12.10;;;8.40;;
11854;SDS011;5987;53.140;8.904;2023-04-01T02:52:15;12.70;;;9.23;;
11854;SDS011;5987;53.140;8.904;2023-04-01T02:55:20;12.77;;;7.80;;
11854;SDS011;5987;53.140;8.904;2023-04-01T02:58:24;11.67;;;7.90;;
11854;SDS011;5987;53.140;8.904;2023-04-01T03:01:27;11.23;;;8.23;;
11854;SDS011;5987;53.140;8.904;2023-04-01T03:04:31;11.93;;;8.53;;
11854;SDS011;5987;53.140;8.904;2023-04-01T03:07:36;13.50;;;8.60;;
11854;SDS011;5987;53.140;8.904;2023-04-01T03:10:41;11.87;;;8.73;;
11854;SDS011;5987;53.140;8.904;2023-04-01T03:13:44;13.13;;;8.60;;
11854;SDS011;5987;53.140;8.904;2023-04-01T03:16:48;15.90;;;8.73;;
11854;SDS011;5987;53.140;8.904;2023-04-01T03:19:52;14.00;;;8.80;;
11854;SDS011;5987;53.140;8.904;2023-04-01T03:22:55;12.30;;;7.93;;
11854;SDS011;5987;53.140;8.904;2023-04-01T03:26:00;12.77;;;7.87;;
11854;SDS011;5987;53.140;8.904;2023-04-01T03:29:04;14.27;;;8.50;;
11854;SDS011;5987;53.140;8.904;2023-04-01T03:32:08;12.60;;;8.30;;
11854;SDS011;5987;53.140;8.904;2023-04-01T03:35:12;11.43;;;7.30;;
11854;SDS011;5987;53.140;8.904;2023-04-01T03:38:16;10.33;;;7.37;;
11854;SDS011;5987;53.140;8.904;2023-04-01T03:41:20;11.47;;;8.30;;
11854;SDS011;5987;53.140;8.904;2023-04-01T03:44:24;13.73;;;8.70;;
11854;SDS011;5987;53.140;8.904;2023-04-01T03:47:28;12.10;;;8.27;;
11854;SDS011;5987;53.140;8.904;2023-04-01T03:50:31;13.40;;;8.43;;
11854;SDS011;5987;53.140;8.904;2023-04-01T03:53:37;12.03;;;7.50;;
11854;SDS011;5987;53.140;8.904;2023-04-01T03:56:42;11.83;;;7.87;;
11854;SDS011;5987;53.140;8.904;2023-04-01T03:59:46;13.40;;;8.33;;
11854;SDS011;5987;53.140;8.904;2023-04-01T04:02:50;11.87;;;8.17;;
11854;SDS011;5987;53.140;8.904;2023-04-01T04:05:54;10.63;;;7.93;;
11854;SDS011;5987;53.140;8.904;2023-04-01T04:08:58;12.57;;;8.17;;
11854;SDS011;5987;53.140;8.904;2023-04-01T04:12:03;12.13;;;8.10;;
11854;SDS011;5987;53.140;8.904;2023-04-01T04:15:07;11.87;;;7.63;;
11854;SDS011;5987;53.140;8.904;2023-04-01T04:18:12;11.20;;;7.43;;
11854;SDS011;5987;53.140;8.904;2023-04-01T04:21:15;12.03;;;8.53;;
11854;SDS011;5987;53.140;8.904;2023-04-01T04:24:19;11.60;;;7.57;;
11854;SDS011;5987;53.140;8.904;2023-04-01T04:27:24;11.67;;;7.70;;
11854;SDS011;5987;53.140;8.904;2023-04-01T04:30:27;13.23;;;8.03;;
11854;SDS011;5987;53.140;8.904;2023-04-01T04:33:31;12.23;;;7.23;;
11854;SDS011;5987;53.140;8.904;2023-04-01T04:36:35;11.10;;;7.23;;
11854;SDS011;5987;53.140;8.904;2023-04-01T04:39:39;13.30;;;7.87;;
11854;SDS011;5987;53.140;8.904;2023-04-01T04:42:44;9.90;;;7.00;;
11854;SDS011;5987;53.140;8.904;2023-04-01T04:45:47;10.60;;;7.00;;
11854;SDS011;5987;53.140;8.904;2023-04-01T04:48:51;11.90;;;7.20;;
11854;SDS011;5987;53.140;8.904;2023-04-01T04:51:54;8.87;;;6.87;;
11854;SDS011;5987;53.140;8.904;2023-04-01T04:54:58;11.13;;;6.87;;
11854;SDS011;5987;53.140;8.904;2023-04-01T04:58:03;11.17;;;7.50;;
11854;SDS011;5987;53.140;8.904;2023-04-01T05:01:07;11.33;;;6.70;;
11854;SDS011;5987;53.140;8.904;2023-04-01T05:04:13;12.80;;;7.10;;
11854;SDS011;5987;53.140;8.904;2023-04-01T05:07:16;10.23;;;6.77;;
11854;SDS011;5987;53.140;8.904;2023-04-01T05:10:20;7.87;;;6.27;;
11854;SDS011;5987;53.140;8.904;2023-04-01T05:13:25;12.37;;;7.47;;
11854;SDS011;5987;53.140;8.904;2023-04-01T05:16:28;14.97;;;9.33;;
11854;SDS011;5987;53.140;8.904;2023-04-01T05:19:33;14.53;;;10.27;;
11854;SDS011;5987;53.140;8.904;2023-04-01T05:22:36;13.13;;;11.00;;
11854;SDS011;5987;53.140;8.904;2023-04-01T05:25:40;15.77;;;10.03;;
11854;SDS011;5987;53.140;8.904;2023-04-01T05:28:45;15.20;;;11.40;;
11854;SDS011;5987;53.140;8.904;2023-04-01T05:31:49;15.37;;;9.07;;
11854;SDS011;5987;53.140;8.904;2023-04-01T05:34:53;12.77;;;9.33;;
11854;SDS011;5987;53.140;8.904;2023-04-01T05:37:57;12.73;;;9.93;;
11854;SDS011;5987;53.140;8.904;2023-04-01T05:41:00;14.07;;;9.93;;
11854;SDS011;5987;53.140;8.904;2023-04-01T05:44:07;11.70;;;10.03;;
11854;SDS011;5987;53.140;8.904;2023-04-01T05:47:14;10.77;;;9.10;;
11854;SDS011;5987;53.140;8.904;2023-04-01T05:50:18;9.13;;;6.40;;
11854;SDS011;5987;53.140;8.904;2023-04-01T05:53:21;7.47;;;5.20;;
11854;SDS011;5987;53.140;8.904;2023-04-01T05:56:25;6.40;;;5.43;;
11854;SDS011;5987;53.140;8.904;2023-04-01T05:59:30;8.60;;;6.03;;
11854;SDS011;5987;53.140;8.904;2023-04-01T06:02:33;7.63;;;5.53;;
11854;SDS011;5987;53.140;8.904;2023-04-01T06:05:39;8.67;;;6.23;;
11854;SDS011;5987;53.140;8.904;2023-04-01T06:08:45;8.83;;;5.37;;
11854;SDS011;5987;53.140;8.904;2023-04-01T06:11:54;6.13;;;5.13;;
11854;SDS011;5987;53.140;8.904;2023-04-01T06:15:29;4.87;;;4.30;;
11854;SDS011;5987;53.140;8.904;2023-04-01T06:18:52;8.37;;;4.90;;
11854;SDS011;5987;53.140;8.904;2023-04-01T06:25:53;5.90;;;4.50;;
11854;SDS011;5987;53.140;8.904;2023-04-01T06:29:20;6.43;;;4.37;;
11854;SDS011;5987;53.140;8.904;2023-04-01T06:33:00;8.30;;;4.43;;
11854;SDS011;5987;53.140;8.904;2023-04-01T06:36:31;5.10;;;4.40;;
11854;SDS011;5987;53.140;8.904;2023-04-01T06:39:58;5.40;;;4.33;;
11854;SDS011;5987;53.140;8.904;2023-04-01T06:43:34;7.50;;;4.83;;
11854;SDS011;5987;53.140;8.904;2023-04-01T06:46:54;5.10;;;4.13;;
11854;SDS011;5987;53.140;8.904;2023-04-01T06:50:07;6.33;;;4.60;;
11854;SDS011;5987;53.140;8.904;2023-04-01T06:53:26;5.57;;;4.00;;
11854;SDS011;5987;53.140;8.904;2023-04-01T06:56:41;5.93;;;4.70;;
11854;SDS011;5987;53.140;8.904;2023-04-01T06:59:51;9.50;;;4.63;;
11854;SDS011;5987;53.140;8.904;2023-04-01T07:03:02;3.80;;;3.50;;
11854;SDS011;5987;53.140;8.904;2023-04-01T07:06:23;4.47;;;3.50;;
11854;SDS011;5987;53.140;8.904;2023-04-01T07:09:35;3.37;;;2.97;;
11854;SDS011;5987;53.140;8.904;2023-04-01T07:12:46;4.80;;;3.13;;
11854;SDS011;5987;53.140;8.904;2023-04-01T07:15:58;5.33;;;3.50;;
11854;SDS011;5987;53.140;8.904;2023-04-01T07:19:15;3.60;;;3.30;;
11854;SDS011;5987;53.140;8.904;2023-04-01T07:22:29;4.10;;;3.40;;
11854;SDS011;5987;53.140;8.904;2023-04-01T07:25:37;4.23;;;3.23;;
11854;SDS011;5987;53.140;8.904;2023-04-01T07:28:46;3.20;;;2.90;;
11854;SDS011;5987;53.140;8.904;2023-04-01T07:32:07;4.03;;;2.80;;
11854;SDS011;5987;53.140;8.904;2023-04-01T07:35:25;4.73;;;3.23;;
11854;SDS011;5987;53.140;8.904;2023-04-01T07:38:37;4.00;;;3.60;;
11854;SDS011;5987;53.140;8.904;2023-04-01T07:41:56;3.87;;;2.80;;
11854;SDS011;5987;53.140;8.904;2023-04-01T07:45:12;4.23;;;3.00;;
11854;SDS011;5987;53.140;8.904;2023-04-01T07:48:28;2.80;;;2.60;;
11854;SDS011;5987;53.140;8.904;2023-04-01T07:51:46;4.07;;;2.40;;
11854;SDS011;5987;53.140;8.904;2023-04-01T07:55:02;2.70;;;2.17;;
11854;SDS011;5987;53.140;8.904;2023-04-01T07:58:16;2.00;;;1.90;;
11854;SDS011;5987;53.140;8.904;2023-04-01T08:01:35;2.20;;;1.73;;
11854;SDS011;5987;53.140;8.904;2023-04-01T08:04:54;3.50;;;2.20;;
11854;SDS011;5987;53.140;8.904;2023-04-01T08:08:11;2.87;;;2.10;;
11854;SDS011;5987;53.140;8.904;2023-04-01T08:11:28;2.00;;;1.80;;
11854;SDS011;5987;53.140;8.904;2023-04-01T08:14:52;1.97;;;1.87;;
11854;SDS011;5987;53.140;8.904;2023-04-01T08:18:14;1.97;;;1.70;;
11854;SDS011;5987;53.140;8.904;2023-04-01T08:21:35;2.10;;;1.90;;
11854;SDS011;5987;53.140;8.904;2023-04-01T08:24:45;3.77;;;2.20;;
11854;SDS011;5987;53.140;8.904;2023-04-01T08:27:55;2.50;;;1.90;;
11854;SDS011;5987;53.140;8.904;2023-04-01T08:31:06;2.77;;;2.33;;
11854;SDS011;5987;53.140;8.904;2023-04-01T08:34:19;2.17;;;2.07;;
11854;SDS011;5987;53.140;8.904;2023-04-01T08:37:30;4.27;;;2.63;;
11854;SDS011;5987;53.140;8.904;2023-04-01T08:52:22;2.90;;;2.33;;
11854;SDS011;5987;53.140;8.904;2023-04-01T08:55:38;3.47;;;2.30;;
11854;SDS011;5987;53.140;8.904;2023-04-01T08:58:57;3.23;;;2.43;;
11854;SDS011;5987;53.140;8.904;2023-04-01T09:02:43;2.80;;;2.30;;
11854;SDS011;5987;53.140;8.904;2023-04-01T09:06:22;2.17;;;1.93;;
11854;SDS011;5987;53.140;8.904;2023-04-01T09:17:37;1.63;;;1.07;;
11854;SDS011;5987;53.140;8.904;2023-04-01T09:21:26;1.13;;;1.00;;
11854;SDS011;5987;53.140;8.904;2023-04-01T09:25:15;1.77;;;1.10;;
11854;SDS011;5987;53.140;8.904;2023-04-01T09:28:42;0.83;;;0.83;;
11854;SDS011;5987;53.140;8.904;2023-04-01T09:32:07;3.67;;;1.47;;
11854;SDS011;5987;53.140;8.904;2023-04-01T09:35:32;1.10;;;1.00;;
11854;SDS011;5987;53.140;8.904;2023-04-01T09:38:54;1.03;;;1.00;;
11854;SDS011;5987;53.140;8.904;2023-04-01T09:42:14;2.30;;;1.10;;
11854;SDS011;5987;53.140;8.904;2023-04-01T09:45:47;2.63;;;1.70;;
11854;SDS011;5987;53.140;8.904;2023-04-01T09:49:18;2.63;;;1.70;;
11854;SDS011;5987;53.140;8.904;2023-04-01T09:52:54;3.43;;;2.27;;
11854;SDS011;5987;53.140;8.904;2023-04-01T09:56:26;0.53;;;0.43;;
11854;SDS011;5987;53.140;8.904;2023-04-01T10:00:22;0.60;;;0.60;;
11854;SDS011;5987;53.140;8.904;2023-04-01T10:04:04;1.03;;;0.40;;
11854;SDS011;5987;53.140;8.904;2023-04-01T10:07:43;0.77;;;0.60;;
11854;SDS011;5987;53.140;8.904;2023-04-01T10:23:03;0.70;;;0.70;;
11854;SDS011;5987;53.140;8.904;2023-04-01T10:26:48;2.33;;;0.77;;
11854;SDS011;5987;53.140;8.904;2023-04-01T10:30:29;0.70;;;0.70;;
11854;SDS011;5987;53.140;8.904;2023-04-01T10:38:08;1.13;;;0.80;;
11854;SDS011;5987;53.140;8.904;2023-04-01T10:41:56;0.90;;;0.90;;
11854;SDS011;5987;53.140;8.904;2023-04-01T10:45:56;0.60;;;0.60;;
11854;SDS011;5987;53.140;8.904;2023-04-01T10:49:49;2.20;;;0.80;;
11854;SDS011;5987;53.140;8.904;2023-04-01T10:53:34;0.90;;;0.90;;
11854;SDS011;5987;53.140;8.904;2023-04-01T10:56:55;0.70;;;0.70;;
11854;SDS011;5987;53.140;8.904;2023-04-01T11:00:36;0.80;;;0.80;;
11854;SDS011;5987;53.140;8.904;2023-04-01T11:31:46;2.80;;;1.50;;
11854;SDS011;5987;53.140;8.904;2023-04-01T11:35:07;1.63;;;1.30;;
11854;SDS011;5987;53.140;8.904;2023-04-01T11:42:24;1.20;;;1.10;;
11854;SDS011;5987;53.140;8.904;2023-04-01T11:45:45;1.33;;;1.23;;
11854;SDS011;5987;53.140;8.904;2023-04-01T11:49:00;2.93;;;1.80;;
11854;SDS011;5987;53.140;8.904;2023-04-01T11:52:38;2.30;;;1.60;;
11854;SDS011;5987;53.140;8.904;2023-04-01T11:56:12;1.97;;;1.70;;
11854;SDS011;5987;53.140;8.904;2023-04-01T11:59:43;1.60;;;1.50;;
11854;SDS011;5987;53.140;8.904;2023-04-01T12:07:13;1.50;;;1.40;;
11854;SDS011;5987;53.140;8.904;2023-04-01T12:10:33;2.53;;;1.50;;
11854;SDS011;5987;53.140;8.904;2023-04-01T12:13:48;1.50;;;1.30;;
11854;SDS011;5987;53.140;8.904;2023-04-01T12:17:04;2.93;;;1.33;;
11854;SDS011;5987;53.140;8.904;2023-04-01T12:20:28;1.93;;;1.60;;
11854;SDS011;5987;53.140;8.904;2023-04-01T12:27:39;2.23;;;1.57;;
11854;SDS011;5987;53.140;8.904;2023-04-01T12:30:59;2.07;;;1.87;;
11854;SDS011;5987;53.140;8.904;2023-04-01T12:38:06;1.97;;;1.20;;
11854;SDS011;5987;53.140;8.904;2023-04-01T12:41:27;1.47;;;1.37;;
11854;SDS011;5987;53.140;8.904;2023-04-01T12:44:55;1.73;;;1.03;;
11854;SDS011;5987;53.140;8.904;2023-04-01T12:52:31;1.03;;;1.03;;
11854;SDS011;5987;53.140;8.904;2023-04-01T12:55:59;3.50;;;1.27;;
11854;SDS011;5987;53.140;8.904;2023-04-01T12:59:15;1.53;;;1.30;;
11854;SDS011;5987;53.140;8.904;2023-04-01T13:02:45;1.10;;;1.00;;
11854;SDS011;5987;53.140;8.904;2023-04-01T13:06:20;1.27;;;1.10;;
11854;SDS011;5987;53.140;8.904;2023-04-01T13:09:55;1.80;;;1.10;;
11854;SDS011;5987;53.140;8.904;2023-04-01T13:13:20;1.40;;;1.30;;
11854;SDS011;5987;53.140;8.904;2023-04-01T13:16:52;1.23;;;1.07;;
11854;SDS011;5987;53.140;8.904;2023-04-01T13:20:06;1.20;;;1.10;;
11854;SDS011;5987;53.140;8.904;2023-04-01T13:23:27;1.33;;;0.90;;
11854;SDS011;5987;53.140;8.904;2023-04-01T13:26:53;1.20;;;1.03;;
11854;SDS011;5987;53.140;8.904;2023-04-01T13:30:16;1.07;;;1.00;;
11854;SDS011;5987;53.140;8.904;2023-04-01T13:33:30;0.87;;;0.87;;
11854;SDS011;5987;53.140;8.904;2023-04-01T13:36:52;1.23;;;1.00;;
11854;SDS011;5987;53.140;8.904;2023-04-01T13:40:22;2.13;;;1.10;;
11854;SDS011;5987;53.140;8.904;2023-04-01T13:43:42;2.83;;;1.13;;
11854;SDS011;5987;53.140;8.904;2023-04-01T13:46:58;1.47;;;0.90;;
11854;SDS011;5987;53.140;8.904;2023-04-01T13:50:46;1.20;;;1.10;;
11854;SDS011;5987;53.140;8.904;2023-04-01T13:54:37;1.43;;;1.33;;
11854;SDS011;5987;53.140;8.904;2023-04-01T14:01:57;2.33;;;2.13;;
11854;SDS011;5987;53.140;8.904;2023-04-01T14:05:28;1.53;;;1.43;;
11854;SDS011;5987;53.140;8.904;2023-04-01T14:12:36;2.13;;;1.57;;
11854;SDS011;5987;53.140;8.904;2023-04-01T14:15:53;2.60;;;1.80;;
11854;SDS011;5987;53.140;8.904;2023-04-01T14:19:37;3.27;;;2.30;;
11854;SDS011;5987;53.140;8.904;2023-04-01T14:23:13;3.03;;;2.20;;
11854;SDS011;5987;53.140;8.904;2023-04-01T14:26:57;2.93;;;2.10;;
11854;SDS011;5987;53.140;8.904;2023-04-01T14:30:35;2.00;;;1.77;;
11854;SDS011;5987;53.140;8.904;2023-04-01T14:33:58;2.37;;;2.07;;
11854;SDS011;5987;53.140;8.904;2023-04-01T14:41:17;3.40;;;2.77;;
11854;SDS011;5987;53.140;8.904;2023-04-01T14:48:48;4.07;;;2.60;;
11854;SDS011;5987;53.140;8.904;2023-04-01T14:51:56;3.67;;;3.07;;
11854;SDS011;5987;53.140;8.904;2023-04-01T14:55:24;7.03;;;3.00;;
11854;SDS011;5987;53.140;8.904;2023-04-01T14:58:41;3.83;;;3.13;;
11854;SDS011;5987;53.140;8.904;2023-04-01T15:01:50;4.80;;;3.23;;
11854;SDS011;5987;53.140;8.904;2023-04-01T15:05:07;5.10;;;3.57;;
11854;SDS011;5987;53.140;8.904;2023-04-01T15:08:26;4.60;;;3.43;;
11854;SDS011;5987;53.140;8.904;2023-04-01T15:11:40;3.30;;;3.00;;
11854;SDS011;5987;53.140;8.904;2023-04-01T15:15:14;3.60;;;3.00;;
11854;SDS011;5987;53.140;8.904;2023-04-01T15:18:37;5.30;;;3.87;;
11854;SDS011;5987;53.140;8.904;2023-04-01T15:21:54;5.57;;;4.37;;
11854;SDS011;5987;53.140;8.904;2023-04-01T15:25:36;4.97;;;3.87;;
11854;SDS011;5987;53.140;8.904;2023-04-01T15:28:59;5.77;;;4.60;;
11854;SDS011;5987;53.140;8.904;2023-04-01T15:32:31;7.60;;;4.70;;
11854;SDS011;5987;53.140;8.904;2023-04-01T15:35:52;5.60;;;4.37;;
11854;SDS011;5987;53.140;8.904;2023-04-01T15:39:11;9.23;;;6.37;;
11854;SDS011;5987;53.140;8.904;2023-04-01T15:42:25;6.63;;;3.70;;
11854;SDS011;5987;53.140;8.904;2023-04-01T15:45:51;4.00;;;2.80;;
11854;SDS011;5987;53.140;8.904;2023-04-01T15:49:18;5.27;;;2.87;;
11854;SDS011;5987;53.140;8.904;2023-04-01T15:52:37;4.10;;;2.93;;
11854;SDS011;5987;53.140;8.904;2023-04-01T15:55:47;3.50;;;2.53;;
11854;SDS011;5987;53.140;8.904;2023-04-01T15:59:02;3.93;;;2.97;;
11854;SDS011;5987;53.140;8.904;2023-04-01T16:02:28;2.43;;;2.23;;
11854;SDS011;5987;53.140;8.904;2023-04-01T16:05:41;2.83;;;2.37;;
11854;SDS011;5987;53.140;8.904;2023-04-01T16:09:11;3.80;;;2.87;;
11854;SDS011;5987;53.140;8.904;2023-04-01T16:12:42;3.93;;;2.50;;
11854;SDS011;5987;53.140;8.904;2023-04-01T16:16:02;3.50;;;3.13;;
11854;SDS011;5987;53.140;8.904;2023-04-01T16:19:32;4.13;;;2.40;;
11854;SDS011;5987;53.140;8.904;2023-04-01T16:22:49;4.70;;;2.90;;
11854;SDS011;5987;53.140;8.904;2023-04-01T16:26:05;4.20;;;2.27;;
11854;SDS011;5987;53.140;8.904;2023-04-01T16:29:19;4.77;;;2.60;;
11854;SDS011;5987;53.140;8.904;2023-04-01T16:32:36;6.20;;;2.47;;
11854;SDS011;5987;53.140;8.904;2023-04-01T16:35:49;4.67;;;2.50;;
11854;SDS011;5987;53.140;8.904;2023-04-01T16:39:17;4.30;;;2.53;;
11854;SDS011;5987;53.140;8.904;2023-04-01T16:42:34;3.47;;;2.70;;
11854;SDS011;5987;53.140;8.904;2023-04-01T16:45:51;6.63;;;2.70;;
11854;SDS011;5987;53.140;8.904;2023-04-01T16:49:17;3.10;;;2.77;;
11854;SDS011;5987;53.140;8.904;2023-04-01T16:52:42;4.07;;;2.93;;
11854;SDS011;5987;53.140;8.904;2023-04-01T16:56:04;4.43;;;3.07;;
11854;SDS011;5987;53.140;8.904;2023-04-01T16:59:18;5.07;;;3.23;;
11854;SDS011;5987;53.140;8.904;2023-04-01T17:02:31;4.07;;;3.30;;
11854;SDS011;5987;53.140;8.904;2023-04-01T17:05:43;5.33;;;3.20;;
11854;SDS011;5987;53.140;8.904;2023-04-01T17:09:04;5.07;;;3.20;;
11854;SDS011;5987;53.140;8.904;2023-04-01T17:12:30;7.53;;;3.60;;
11854;SDS011;5987;53.140;8.904;2023-04-01T17:15:46;3.40;;;3.10;;
11854;SDS011;5987;53.140;8.904;2023-04-01T17:19:05;4.80;;;3.40;;
11854;SDS011;5987;53.140;8.904;2023-04-01T17:22:27;4.63;;;3.53;;
11854;SDS011;5987;53.140;8.904;2023-04-01T17:29:19;7.70;;;3.60;;
11854;SDS011;5987;53.140;8.904;2023-04-01T17:32:38;7.63;;;3.60;;
11854;SDS011;5987;53.140;8.904;2023-04-01T17:35:57;6.73;;;3.00;;
11854;SDS011;5987;53.140;8.904;2023-04-01T17:39:10;3.80;;;3.30;;
11854;SDS011;5987;53.140;8.904;2023-04-01T17:42:37;4.17;;;3.03;;
11854;SDS011;5987;53.140;8.904;2023-04-01T17:46:01;4.87;;;2.93;;
11854;SDS011;5987;53.140;8.904;2023-04-01T17:49:27;8.10;;;2.97;;
11854;SDS011;5987;53.140;8.904;2023-04-01T17:52:42;5.07;;;3.23;;
11854;SDS011;5987;53.140;8.904;2023-04-01T17:55:56;6.20;;;3.03;;
11854;SDS011;5987;53.140;8.904;2023-04-01T17:59:16;4.67;;;2.93;;
11854;SDS011;5987;53.140;8.904;2023-04-01T18:02:30;6.37;;;3.10;;
11854;SDS011;5987;53.140;8.904;2023-04-01T18:05:58;6.80;;;3.50;;
11854;SDS011;5987;53.140;8.904;2023-04-01T18:09:15;5.00;;;3.13;;
11854;SDS011;5987;53.140;8.904;2023-04-01T18:12:35;4.50;;;2.93;;
11854;SDS011;5987;53.140;8.904;2023-04-01T18:16:04;4.00;;;3.27;;
11854;SDS011;5987;53.140;8.904;2023-04-01T18:19:28;4.00;;;3.03;;
11854;SDS011;5987;53.140;8.904;2023-04-01T18:22:47;5.50;;;3.00;;
11854;SDS011;5987;53.140;8.904;2023-04-01T18:26:02;5.80;;;3.60;;
11854;SDS011;5987;53.140;8.904;2023-04-01T18:29:17;6.30;;;4.30;;
11854;SDS011;5987;53.140;8.904;2023-04-01T18:32:42;10.83;;;4.07;;
11854;SDS011;5987;53.140;8.904;2023-04-01T18:35:54;6.53;;;4.00;;
11854;SDS011;5987;53.140;8.904;2023-04-01T18:39:11;6.10;;;3.83;;
11854;SDS011;5987;53.140;8.904;2023-04-01T18:42:22;5.43;;;4.10;;
11854;SDS011;5987;53.140;8.904;2023-04-01T18:45:43;7.03;;;4.50;;
11854;SDS011;5987;53.140;8.904;2023-04-01T18:48:57;7.07;;;4.20;;
11854;SDS011;5987;53.140;8.904;2023-04-01T18:52:13;4.93;;;3.80;;
11854;SDS011;5987;53.140;8.904;2023-04-01T18:55:29;8.73;;;3.57;;
11854;SDS011;5987;53.140;8.904;2023-04-01T18:58:44;4.63;;;3.60;;
11854;SDS011;5987;53.140;8.904;2023-04-01T19:01:58;6.00;;;3.63;;
11854;SDS011;5987;53.140;8.904;2023-04-01T19:05:14;5.40;;;3.57;;
11854;SDS011;5987;53.140;8.904;2023-04-01T19:08:26;7.53;;;4.97;;
11854;SDS011;5987;53.140;8.904;2023-04-01T19:11:35;7.37;;;4.10;;
11854;SDS011;5987;53.140;8.904;2023-04-01T19:15:06;8.90;;;5.37;;
11854;SDS011;5987;53.140;8.904;2023-04-01T19:18:31;9.63;;;6.10;;
11854;SDS011;5987;53.140;8.904;2023-04-01T19:21:56;10.27;;;5.63;;
11854;SDS011;5987;53.140;8.904;2023-04-01T19:28:43;9.43;;;6.00;;
11854;SDS011;5987;53.140;8.904;2023-04-01T19:31:59;11.87;;;6.50;;
11854;SDS011;5987;53.140;8.904;2023-04-01T19:35:19;7.10;;;5.17;;
11854;SDS011;5987;53.140;8.904;2023-04-01T19:38:37;8.17;;;5.00;;
11854;SDS011;5987;53.140;8.904;2023-04-01T19:41:46;12.27;;;5.17;;
11854;SDS011;5987;53.140;8.904;2023-04-01T19:45:04;11.20;;;5.00;;
11854;SDS011;5987;53.140;8.904;2023-04-01T19:48:33;7.47;;;4.47;;
11854;SDS011;5987;53.140;8.904;2023-04-01T19:51:56;5.23;;;4.00;;
11854;SDS011;5987;53.140;8.904;2023-04-01T19:55:14;6.07;;;4.00;;
11854;SDS011;5987;53.140;8.904;2023-04-01T19:58:34;7.73;;;4.43;;
11854;SDS011;5987;53.140;8.904;2023-04-01T20:01:51;11.17;;;5.07;;
11854;SDS011;5987;53.140;8.904;2023-04-01T20:05:04;9.00;;;3.83;;
11854;SDS011;5987;53.140;8.904;2023-04-01T20:08:36;5.83;;;4.03;;
11854;SDS011;5987;53.140;8.904;2023-04-01T20:11:50;6.40;;;4.20;;
11854;SDS011;5987;53.140;8.904;2023-04-01T20:15:03;5.03;;;3.87;;
11854;SDS011;5987;53.140;8.904;2023-04-01T20:18:31;7.50;;;3.97;;
11854;SDS011;5987;53.140;8.904;2023-04-01T20:21:43;6.40;;;4.17;;
11854;SDS011;5987;53.140;8.904;2023-04-01T20:24:50;5.73;;;3.50;;
11854;SDS011;5987;53.140;8.904;2023-04-01T20:28:00;4.37;;;3.57;;
11854;SDS011;5987;53.140;8.904;2023-04-01T20:31:23;5.70;;;3.17;;
11854;SDS011;5987;53.140;8.904;2023-04-01T20:34:40;7.07;;;3.83;;
11854;SDS011;5987;53.140;8.904;2023-04-01T20:38:04;6.20;;;3.73;;
11854;SDS011;5987;53.140;8.904;2023-04-01T20:41:39;4.37;;;3.30;;
11854;SDS011;5987;53.140;8.904;2023-04-01T20:45:13;5.00;;;3.77;;
11854;SDS011;5987;53.140;8.904;2023-04-01T20:52:38;6.53;;;4.33;;
11854;SDS011;5987;53.140;8.904;2023-04-01T20:55:55;4.80;;;4.10;;
11854;SDS011;5987;53.140;8.904;2023-04-01T20:59:25;7.00;;;4.30;;
11854;SDS011;5987;53.140;8.904;2023-04-01T21:02:50;3.63;;;3.33;;
11854;SDS011;5987;53.140;8.904;2023-04-01T21:06:20;4.43;;;3.50;;
11854;SDS011;5987;53.140;8.904;2023-04-01T21:10:03;5.17;;;3.53;;
11854;SDS011;5987;53.140;8.904;2023-04-01T21:13:36;5.23;;;3.73;;
11854;SDS011;5987;53.140;8.904;2023-04-01T21:16:58;6.93;;;3.90;;
11854;SDS011;5987;53.140;8.904;2023-04-01T21:20:22;7.73;;;3.93;;
11854;SDS011;5987;53.140;8.904;2023-04-01T21:27:45;8.53;;;3.80;;
11854;SDS011;5987;53.140;8.904;2023-04-01T21:35:03;5.63;;;3.23;;
11854;SDS011;5987;53.140;8.904;2023-04-01T21:38:29;6.73;;;3.37;;
11854;SDS011;5987;53.140;8.904;2023-04-01T21:41:56;5.77;;;3.53;;
11854;SDS011;5987;53.140;8.904;2023-04-01T21:45:17;4.93;;;3.30;;
11854;SDS011;5987;53.140;8.904;2023-04-01T21:48:56;5.20;;;3.53;;
11854;SDS011;5987;53.140;8.904;2023-04-01T21:52:42;4.50;;;3.03;;
11854;SDS011;5987;53.140;8.904;2023-04-01T22:00:19;5.17;;;3.20;;
11854;SDS011;5987;53.140;8.904;2023-04-01T22:07:44;3.83;;;2.60;;
11854;SDS011;5987;53.140;8.904;2023-04-01T22:11:03;5.07;;;3.00;;
11854;SDS011;5987;53.140;8.904;2023-04-01T22:14:20;3.83;;;2.87;;